Time;durP1;ratioP1;P1;durP2;ratioP2;P2;SDS_P1;SDS_P2;PMS_P1;PMS_P2;Temp;Humidity;BMP_temperature;BMP_pressure;BME280_temperature;BME280_humidity;BME280_pressure;Samples;Min_cycle;Max_cycle;Signal;HPM_P1;HPM_P2
2021/09/13 00:00:09;;;;;;;11.05;3.88;;;14.30;99.90;;;13.06;100.00;101381.47;4979840;28;20026;-74
2021/09/13 00:02:35;;;;;;;6.65;3.72;;;14.20;99.90;;;13.01;100.00;101362.34;4974196;28;20057;-75
2021/09/13 00:05:01;;;;;;;7.95;3.88;;;14.20;99.90;;;12.96;100.00;101367.00;4988996;28;20010;-74
2021/09/13 00:07:28;;;;;;;9.18;3.85;;;14.20;99.90;;;12.91;100.00;101367.22;4966007;28;20065;-74
2021/09/13 00:09:54;;;;;;;14.40;4.00;;;14.10;99.90;;;12.87;100.00;101367.41;4981093;28;20034;-75
2021/09/13 00:12:20;;;;;;;9.50;3.85;;;14.00;99.90;;;12.81;100.00;101360.63;4991413;28;20018;-74
2021/09/13 00:14:46;;;;;;;9.50;4.35;;;14.00;99.90;;;12.76;100.00;101389.03;4990502;28;20076;-74
2021/09/13 00:17:12;;;;;;;7.82;4.07;;;14.00;99.90;;;12.75;100.00;101383.84;4989812;28;20508;-75
2021/09/13 00:19:38;;;;;;;11.20;4.13;;;14.00;99.90;;;12.75;100.00;101420.84;4956577;28;20417;-74
2021/09/13 00:22:05;;;;;;;14.02;4.10;;;14.00;99.90;;;12.78;100.00;101415.41;4985144;28;20119;-74
2021/09/13 00:24:32;;;;;;;8.13;3.95;;;14.00;99.90;;;12.76;100.00;101410.16;4980697;28;20060;-74
2021/09/13 00:26:58;;;;;;;9.27;3.53;;;14.70;99.90;;;12.71;100.00;101391.03;4982335;28;20110;-74
2021/09/13 00:29:24;;;;;;;8.00;3.60;;;14.90;99.90;;;12.63;100.00;101370.22;4992285;28;20076;-74
2021/09/13 00:31:50;;;;;;;10.20;4.13;;;13.90;99.90;;;12.61;100.00;101366.81;4961802;28;20193;-74
2021/09/13 00:34:16;;;;;;;8.20;4.05;;;13.80;99.90;;;12.59;100.00;101368.69;4988945;28;20018;-74
2021/09/13 00:36:42;;;;;;;8.57;3.38;;;13.80;99.90;;;12.52;100.00;101352.22;4989517;28;20036;-74
2021/09/13 00:39:10;;;;;;;9.55;3.47;;;13.70;99.90;;;12.39;100.00;101343.13;4970630;28;20026;-74
2021/09/13 00:41:36;;;;;;;11.00;3.60;;;13.60;99.90;;;12.32;100.00;101342.53;4969755;28;20096;-74
2021/09/13 00:44:03;;;;;;;5.00;2.83;;;13.60;99.90;;;12.26;100.00;101360.44;4990143;28;20033;-74
2021/09/13 00:46:29;;;;;;;6.35;3.35;;;13.50;99.90;;;12.24;100.00;101367.56;4989438;28;20122;-74
2021/09/13 00:48:55;;;;;;;7.72;3.60;;;13.50;99.90;;;12.22;100.00;101390.53;4989466;28;20063;-74
2021/09/13 00:51:22;;;;;;;7.28;3.38;;;13.50;99.90;;;12.22;100.00;101396.66;4986510;28;20038;-74
2021/09/13 00:53:49;;;;;;;6.57;3.50;;;13.50;99.90;;;12.26;100.00;101394.78;4982015;28;20117;-74
2021/09/13 00:56:16;;;;;;;6.88;3.55;;;13.50;99.90;;;12.25;100.00;101396.56;4988417;28;20063;-75
2021/09/13 00:58:42;;;;;;;8.82;3.67;;;13.50;99.90;;;12.24;100.00;101380.78;4968794;28;20070;-74
2021/09/13 01:01:08;;;;;;;9.10;3.50;;;13.50;99.90;;;12.24;100.00;101365.78;4956603;28;20071;-74
2021/09/13 01:03:34;;;;;;;8.32;3.38;;;13.50;99.90;;;12.23;100.00;101364.09;4993906;28;20067;-74
2021/09/13 01:06:01;;;;;;;5.60;3.10;;;13.50;99.90;;;12.18;100.00;101344.06;4964008;28;20046;-74
2021/09/13 01:08:26;;;;;;;7.78;3.03;;;13.40;99.90;;;12.16;100.00;101328.31;4973261;28;20084;-74
2021/09/13 01:10:56;;;;;;;15.25;3.88;;;13.40;99.90;;;12.17;100.00;101322.09;4966165;28;20069;-74
2021/09/13 01:13:22;;;;;;;7.90;3.17;;;13.40;99.90;;;12.15;100.00;101326.59;4959548;28;20221;-75
2021/09/13 01:15:48;;;;;;;5.50;3.20;;;13.40;99.90;;;12.07;100.00;101329.56;4993144;28;20060;-74
2021/09/13 01:18:14;;;;;;;8.23;3.55;;;13.30;99.90;;;12.06;100.00;101329.63;4967113;28;20109;-75
2021/09/13 01:20:43;;;;;;;7.20;3.10;;;13.30;99.90;;;12.00;100.00;101322.81;4984524;28;20070;-74
2021/09/13 01:23:32;;;;;;;10.32;3.55;;;13.30;99.90;;;12.08;100.00;101355.03;4983434;28;20050;-74
2021/09/13 01:25:59;;;;;;;8.35;4.05;;;13.40;99.90;;;12.16;100.00;101381.13;4957678;28;20593;-74
2021/09/13 01:28:26;;;;;;;13.13;5.03;;;13.50;99.90;;;12.25;100.00;101393.06;4958351;28;20026;-74
2021/09/13 01:30:54;;;;;;;8.15;4.15;;;13.50;99.90;;;12.30;100.00;101376.09;4976618;28;20030;-74
2021/09/13 01:33:23;;;;;;;9.20;4.43;;;13.60;99.90;;;12.39;100.00;101382.75;4971005;28;20038;-74
2021/09/13 01:35:50;;;;;;;19.60;4.32;;;13.60;99.90;;;12.40;100.00;101371.28;4982278;28;20123;-74
2021/09/13 01:38:24;;;;;;;10.95;4.00;;;13.60;99.90;;;12.36;100.00;101335.34;4961333;28;20143;-74
2021/09/13 01:40:52;;;;;;;11.23;3.70;;;13.60;99.90;;;12.32;100.00;101316.13;4964659;28;20068;-74
2021/09/13 01:43:18;;;;;;;14.95;4.28;;;13.50;99.90;;;12.24;100.00;101291.00;4972994;28;20038;-74
2021/09/13 01:45:45;;;;;;;10.45;4.07;;;13.50;99.90;;;12.20;100.00;101285.03;5000782;28;20037;-74
2021/09/13 01:48:11;;;;;;;10.10;4.40;;;13.40;99.90;;;12.14;100.00;101279.13;4966788;28;20029;-74
2021/09/13 01:50:37;;;;;;;9.05;4.18;;;13.30;99.90;;;12.03;100.00;101296.31;4968445;28;20059;-73
2021/09/13 01:53:03;;;;;;;11.52;4.03;;;13.30;99.90;;;11.98;100.00;101593.88;4984802;28;20068;-74
2021/09/13 01:55:29;;;;;;;8.00;3.70;;;13.30;99.90;;;11.99;100.00;101598.25;4958861;28;20071;-74
2021/09/13 01:57:55;;;;;;;11.25;4.30;;;13.30;99.90;;;12.03;100.00;101565.56;4967427;28;20402;-74
2021/09/13 02:00:20;;;;;;;14.80;4.28;;;13.30;99.90;;;12.06;100.00;101568.06;4959348;28;20044;-75
2021/09/13 02:02:46;;;;;;;11.55;4.47;;;13.40;99.90;;;12.14;100.00;101566.88;4992258;28;20419;-74
2021/09/13 02:05:12;;;;;;;16.48;4.40;;;13.40;99.90;;;12.13;100.00;101539.63;4987626;28;20026;-73
2021/09/13 02:07:38;;;;;;;8.32;4.15;;;13.40;99.90;;;12.21;100.00;101542.81;4989655;28;20058;-74
2021/09/13 02:10:07;;;;;;;7.72;4.30;;;13.50;99.90;;;12.23;100.00;101551.56;4968165;28;20064;-75
2021/09/13 02:12:33;;;;;;;12.50;4.70;;;13.50;99.90;;;12.27;100.00;101586.63;4988508;28;20027;-74
2021/09/13 02:14:59;;;;;;;13.57;5.00;;;13.00;99.90;;;12.25;100.00;101559.41;4983413;28;20049;-74
2021/09/13 02:17:25;;;;;;;11.65;3.90;;;13.50;99.90;;;12.25;100.00;101564.69;4982716;28;20050;-75
2021/09/13 02:19:51;;;;;;;9.38;4.35;;;13.50;99.90;;;12.23;100.00;101553.34;4991422;28;20709;-74
2021/09/13 02:22:17;;;;;;;8.38;3.85;;;13.50;99.90;;;12.24;100.00;101541.84;4983986;28;20509;-74
2021/09/13 02:24:43;;;;;;;10.73;4.20;;;13.50;99.90;;;12.19;100.00;101520.06;4973291;28;20068;-74
2021/09/13 02:27:10;;;;;;;8.50;3.88;;;13.40;99.90;;;12.15;100.00;101587.94;4965536;28;20023;-75
2021/09/13 02:29:36;;;;;;;9.00;3.80;;;13.40;99.90;;;12.15;100.00;101523.75;4983921;28;20460;-74
2021/09/13 02:32:03;;;;;;;9.90;4.20;;;13.40;99.90;;;12.15;100.00;101539.56;4991672;28;20062;-74
2021/09/13 02:34:29;;;;;;;10.88;4.50;;;13.40;99.90;;;12.16;100.00;101534.25;4976240;28;20420;-73
2021/09/13 02:36:55;;;;;;;17.25;4.43;;;13.40;99.90;;;12.14;100.00;101535.19;4975556;28;20070;-74
2021/09/13 02:39:22;;;;;;;17.23;4.65;;;13.40;99.90;;;12.16;100.00;101536.88;4991247;28;20030;-74
2021/09/13 02:41:48;;;;;;;6.82;4.05;;;13.40;99.90;;;12.15;100.00;101544.84;4967497;28;20049;-74
2021/09/13 02:44:14;;;;;;;16.95;4.80;;;13.40;99.90;;;12.17;100.00;101558.84;4971751;28;20422;-74
2021/09/13 02:46:40;;;;;;;10.57;4.88;;;13.40;99.90;;;12.16;100.00;101565.94;4964560;28;20085;-74
2021/09/13 02:49:06;;;;;;;12.65;4.88;;;13.40;99.90;;;12.22;100.00;101557.72;4964762;28;20042;-74
2021/09/13 02:51:32;;;;;;;11.88;5.03;;;13.50;99.90;;;12.22;100.00;101551.59;4955861;28;20440;-74
2021/09/13 02:53:58;;;;;;;11.63;5.10;;;13.50;99.90;;;12.27;100.00;101549.66;4956531;28;20061;-74
2021/09/13 02:56:24;;;;;;;13.55;4.35;;;13.50;99.90;;;12.27;100.00;101531.16;4952381;28;20027;-75
2021/09/13 02:58:50;;;;;;;9.88;4.78;;;13.60;99.90;;;12.33;100.00;101538.81;4957019;28;20031;-74
2021/09/13 03:01:16;;;;;;;16.67;4.85;;;13.60;99.90;;;12.38;100.00;101534.22;4955699;28;20044;-74
2021/09/13 03:03:42;;;;;;;11.27;4.43;;;13.60;99.90;;;12.41;100.00;101525.31;4961882;28;20030;-74
2021/09/13 03:06:09;;;;;;;10.68;4.65;;;13.70;99.90;;;12.44;100.00;101512.84;4963607;28;20382;-74
2021/09/13 03:08:36;;;;;;;10.68;4.05;;;13.70;99.90;;;12.48;100.00;101495.06;4970190;28;20022;-74
2021/09/13 03:11:03;;;;;;;13.38;4.53;;;13.80;99.90;;;12.50;100.00;101491.47;4963999;28;20097;-75
2021/09/13 03:13:30;;;;;;;11.88;4.45;;;13.70;99.90;;;12.51;100.00;101479.94;4956625;28;20539;-74
2021/09/13 03:15:56;;;;;;;12.55;3.78;;;13.80;99.90;;;12.56;100.00;101457.78;4974249;28;20042;-74
2021/09/13 03:18:22;;;;;;;10.68;4.38;;;13.80;99.90;;;12.60;100.00;101441.72;4949243;28;20153;-74
2021/09/13 03:20:48;;;;;;;16.00;3.90;;;13.80;99.90;;;12.61;100.00;101437.28;4983240;28;20103;-74
2021/09/13 03:23:14;;;;;;;13.02;3.70;;;13.80;99.90;;;12.64;100.00;101438.00;4976545;28;20057;-75
2021/09/13 03:25:40;;;;;;;9.55;3.92;;;13.90;99.90;;;12.66;100.00;101432.66;4974049;28;20071;-74
2021/09/13 03:28:06;;;;;;;7.82;3.65;;;13.90;99.90;;;12.72;100.00;101427.09;4991676;28;20105;-74
2021/09/13 03:30:32;;;;;;;13.85;3.78;;;13.90;99.90;;;12.71;100.00;101436.81;4990220;28;20082;-74
2021/09/13 03:32:58;;;;;;;8.23;3.40;;;14.00;99.90;;;12.75;100.00;101431.41;4969538;28;20022;-74
2021/09/13 03:35:24;;;;;;;8.82;3.40;;;14.00;99.90;;;12.75;100.00;101423.47;4990867;28;20042;-74
2021/09/13 03:37:50;;;;;;;12.15;3.85;;;14.00;99.90;;;12.77;100.00;101422.47;4989007;28;20034;-73
2021/09/13 03:40:16;;;;;;;14.23;3.55;;;14.00;99.90;;;12.80;100.00;101416.19;4974206;28;20107;-75
2021/09/13 03:42:42;;;;;;;6.88;2.90;;;14.00;99.90;;;12.81;100.00;101478.72;4983771;28;20409;-74
2021/09/13 03:45:09;;;;;;;7.68;3.33;;;14.00;99.90;;;12.82;100.00;101565.84;4958124;28;20030;-74
2021/09/13 03:47:35;;;;;;;11.70;3.42;;;14.10;99.90;;;12.85;100.00;101608.00;4955981;28;20049;-74
2021/09/13 03:50:01;;;;;;;11.38;4.00;;;14.10;99.90;;;12.87;100.00;101666.94;4957111;28;20038;-74
2021/09/13 03:52:27;;;;;;;12.85;3.45;;;14.10;99.90;;;13.00;100.00;101706.09;4964330;28;20026;-74
2021/09/13 03:54:53;;;;;;;7.90;3.45;;;14.20;99.90;;;12.96;100.00;101738.84;4983522;28;20821;-74
2021/09/13 03:57:19;;;;;;;8.57;3.67;;;14.20;99.90;;;12.97;100.00;101773.16;4975049;28;20563;-74
2021/09/13 03:59:45;;;;;;;8.80;3.22;;;14.20;99.90;;;13.01;100.00;101834.72;4972479;28;20057;-74
2021/09/13 04:02:11;;;;;;;13.63;3.28;;;14.20;99.90;;;13.01;100.00;101826.78;4974856;28;20432;-74
2021/09/13 04:04:37;;;;;;;12.13;3.55;;;14.20;99.90;;;13.02;100.00;101900.72;4957683;28;20397;-73
2021/09/13 04:07:16;;;;;;;7.78;4.32;;;14.30;99.90;;;13.03;100.00;101931.56;4981805;28;20113;-74
2021/09/13 04:09:51;;;;;;;9.73;3.67;;;14.30;99.90;;;13.05;100.00;101990.53;4963815;28;20052;-74
2021/09/13 04:12:17;;;;;;;7.13;3.13;;;14.30;99.90;;;13.11;100.00;102037.06;4976401;28;20037;-74
2021/09/13 04:14:43;;;;;;;16.77;3.50;;;14.30;99.90;;;13.11;100.00;102021.19;4981003;28;20038;-75
2021/09/13 04:17:09;;;;;;;16.00;4.05;;;14.30;99.90;;;13.10;100.00;102045.91;4989763;28;20022;-74
2021/09/13 04:19:35;;;;;;;8.25;3.55;;;14.30;99.90;;;13.14;100.00;102110.97;4986810;28;20073;-74
2021/09/13 04:22:02;;;;;;;9.07;3.47;;;14.30;99.90;;;13.06;100.00;102177.34;4989130;28;20052;-74
2021/09/13 04:24:28;;;;;;;9.90;3.85;;;14.30;99.90;;;13.03;100.00;102160.75;4982729;28;20184;-74
2021/09/13 04:26:54;;;;;;;9.88;3.22;;;14.20;99.90;;;12.97;100.00;102156.50;4974257;28;20105;-74
2021/09/13 04:29:20;;;;;;;8.90;4.10;;;14.20;99.90;;;12.90;100.00;102199.94;4985883;28;20033;-74
2021/09/13 04:31:46;;;;;;;11.73;3.58;;;14.10;99.90;;;12.82;100.00;102233.69;4990658;28;20368;-74
2021/09/13 04:34:12;;;;;;;8.23;3.47;;;14.00;99.90;;;12.70;100.00;102212.03;4989651;28;20196;-74
2021/09/13 04:36:39;;;;;;;8.88;3.15;;;13.90;99.90;;;12.61;100.00;102251.97;4948491;28;20075;-74
2021/09/13 04:39:05;;;;;;;7.78;2.75;;;13.80;99.90;;;12.56;100.00;102250.34;4928286;28;20048;-75
2021/09/13 04:41:31;;;;;;;11.75;3.67;;;13.80;99.90;;;12.52;100.00;102311.22;4953701;28;20034;-74
2021/09/13 04:43:57;;;;;;;8.38;3.65;;;13.80;99.90;;;12.49;100.00;102364.16;4954658;28;20026;-74
2021/09/13 04:46:23;;;;;;;12.02;4.28;;;13.70;99.90;;;12.49;100.00;102387.06;4972321;28;20023;-74
2021/09/13 04:48:49;;;;;;;15.05;3.92;;;13.70;99.90;;;12.46;100.00;102398.59;4953893;28;20038;-74
2021/09/13 04:51:16;;;;;;;19.25;4.72;;;13.80;99.90;;;12.51;100.00;102419.59;4953047;28;20041;-74
2021/09/13 04:53:42;;;;;;;13.00;4.28;;;13.80;99.90;;;12.60;100.00;102476.63;4971307;28;20038;-74
2021/09/13 04:56:08;;;;;;;9.88;4.68;;;13.90;99.90;;;12.69;100.00;102510.72;4970080;28;20034;-74
2021/09/13 04:58:34;;;;;;;13.73;4.63;;;14.00;99.90;;;12.76;100.00;102522.84;4952602;28;20075;-75
2021/09/13 05:01:00;;;;;;;10.88;4.40;;;14.10;99.90;;;12.83;100.00;102513.84;4970615;28;20088;-74
2021/09/13 05:03:26;;;;;;;16.20;6.45;;;14.10;99.90;;;12.88;100.00;102530.44;4952575;28;20840;-74
2021/09/13 05:05:52;;;;;;;18.40;5.10;;;14.20;99.90;;;12.93;100.00;102568.19;4947096;28;20045;-75
2021/09/13 05:08:20;;;;;;;11.48;4.88;;;14.20;99.90;;;12.99;100.00;102561.88;4956150;28;21517;-74
2021/09/13 05:10:46;;;;;;;12.93;5.30;;;14.30;99.90;;;13.03;100.00;102607.63;4959859;28;20592;-74
2021/09/13 05:13:12;;;;;;;16.00;4.72;;;14.30;99.90;;;13.08;100.00;102622.44;4973675;28;20651;-74
2021/09/13 05:15:38;;;;;;;24.27;6.15;;;14.30;99.90;;;13.15;100.00;102670.75;4944933;28;20042;-74
2021/09/13 05:18:04;;;;;;;20.60;5.60;;;14.40;99.90;;;13.18;100.00;102673.34;4983860;28;20086;-74
2021/09/13 05:20:30;;;;;;;11.48;5.35;;;14.40;99.90;;;13.24;100.00;102653.75;4954046;28;20483;-75
2021/09/13 05:22:56;;;;;;;17.65;5.70;;;14.50;99.90;;;13.27;100.00;102702.19;4945493;28;20483;-74
2021/09/13 05:25:24;;;;;;;12.55;6.25;;;14.50;99.90;;;13.31;100.00;102695.94;4962600;28;20022;-75
2021/09/13 05:27:50;;;;;;;11.23;5.80;;;14.60;99.90;;;13.32;100.00;102755.88;4960914;28;20491;-74
2021/09/13 05:30:16;;;;;;;15.88;6.40;;;14.60;99.90;;;13.36;100.00;102761.97;4970781;28;20026;-74
2021/09/13 05:32:44;;;;;;;12.68;6.85;;;14.60;99.90;;;13.38;100.00;102801.63;4971487;28;20482;-75
2021/09/13 05:35:11;;;;;;;12.15;5.93;;;14.60;99.90;;;13.39;100.00;102841.28;4952578;28;20030;-75
2021/09/13 05:37:40;;;;;;;16.60;6.60;;;14.70;99.90;;;13.36;100.00;102814.88;4961051;28;20031;-74
2021/09/13 05:40:07;;;;;;;15.38;7.13;;;14.70;99.90;;;13.36;100.00;102891.59;5005426;28;20100;-75
2021/09/13 05:42:34;;;;;;;15.45;7.15;;;14.70;99.90;;;13.36;100.00;102906.63;4954469;28;20038;-76
2021/09/13 05:45:01;;;;;;;18.20;7.80;;;14.70;99.90;;;13.40;100.00;102924.16;4953506;28;20030;-75
2021/09/13 05:47:27;;;;;;;15.32;6.43;;;14.70;99.90;;;13.43;100.00;103336.94;4961599;28;20061;-75
2021/09/13 05:49:53;;;;;;;14.02;7.00;;;14.80;99.90;;;13.50;100.00;103412.72;4950169;28;20524;-76
2021/09/13 05:52:20;;;;;;;16.58;7.55;;;14.80;99.90;;;13.54;100.00;103121.47;4968572;28;20065;-75
2021/09/13 05:54:46;;;;;;;10.93;6.57;;;14.90;99.90;;;13.66;100.00;103193.56;4984933;28;20046;-75
2021/09/13 05:57:12;;;;;;;22.10;7.78;;;15.00;99.90;;;13.71;100.00;103216.41;4992406;28;20042;-76
2021/09/13 05:59:38;;;;;;;15.38;8.20;;;15.00;99.90;;;13.72;100.00;103151.09;4966939;28;20026;-74
2021/09/13 06:02:04;;;;;;;15.88;7.63;;;15.00;99.90;;;13.77;100.00;103556.13;4984821;28;20044;-76
2021/09/13 06:04:33;;;;;;;13.98;7.28;;;15.00;99.90;;;13.85;100.00;103146.41;4971013;28;20034;-75
2021/09/13 06:07:00;;;;;;;12.45;6.38;;;15.10;99.90;;;13.94;100.00;103157.66;4949465;28;20439;-75
2021/09/13 06:09:26;;;;;;;9.20;6.88;;;15.20;99.90;;;14.03;100.00;103818.00;4950550;28;20049;-75
2021/09/13 06:11:52;;;;;;;12.73;6.97;;;15.30;99.90;;;14.18;100.00;104842.66;4971589;28;20046;-75
2021/09/13 06:14:18;;;;;;;11.60;6.47;;;15.50;99.90;;;14.39;100.00;102880.13;4976477;28;20454;-75
2021/09/13 06:16:44;;;;;;;11.85;6.68;;;15.70;99.90;;;14.45;100.00;102675.84;4973784;28;20026;-75
2021/09/13 06:19:10;;;;;;;10.75;5.55;;;15.80;99.90;;;14.46;100.00;102625.44;5000011;28;20502;-76
2021/09/13 06:21:37;;;;;;;14.30;6.07;;;15.80;99.90;;;14.56;100.00;102692.34;4936932;28;20045;-75
2021/09/13 06:24:04;;;;;;;7.85;4.43;;;15.90;99.90;;;14.63;100.00;102722.16;4945261;28;20419;-75
2021/09/13 06:26:30;;;;;;;9.85;4.70;;;15.90;99.90;;;14.65;100.00;103141.91;4953493;28;20109;-75
2021/09/13 06:28:56;;;;;;;10.93;4.80;;;15.90;99.90;;;14.59;100.00;103113.75;4950152;28;20109;-75
2021/09/13 06:31:22;;;;;;;10.23;4.00;;;15.90;99.90;;;14.49;100.00;103081.28;4964270;28;20117;-75
2021/09/13 06:33:48;;;;;;;11.32;3.85;;;15.80;99.90;;;14.40;100.00;103173.41;4957486;28;20030;-75
2021/09/13 06:36:15;;;;;;;7.93;3.85;;;15.70;99.90;;;14.26;100.00;103137.50;4963249;28;20023;-75
2021/09/13 06:38:43;;;;;;;8.43;3.30;;;15.60;99.90;;;14.35;100.00;103067.50;4955138;28;20364;-75
2021/09/13 06:41:09;;;;;;;12.18;3.70;;;15.70;99.90;;;14.41;100.00;103050.59;4971190;28;20402;-76
2021/09/13 06:43:35;;;;;;;5.90;3.33;;;15.60;99.90;;;14.34;100.00;103060.44;4956738;28;20057;-75
2021/09/13 06:48:39;;;;;;;9.80;2.60;;;15.80;99.90;;;14.47;100.00;102970.88;4982250;28;20034;-76
2021/09/13 06:51:05;;;;;;;5.22;3.20;;;15.80;99.90;;;14.48;100.00;102891.31;4973697;28;20038;-75
2021/09/13 06:53:31;;;;;;;8.35;2.85;;;15.80;99.90;;;14.55;100.00;102881.44;4982232;28;20022;-76
2021/09/13 06:56:01;;;;;;;12.57;3.20;;;15.90;99.90;;;14.70;100.00;102877.47;4966629;28;20506;-75
2021/09/13 06:58:27;;;;;;;11.23;2.70;;;15.90;99.90;;;14.60;100.00;102868.06;4972008;28;20034;-75
2021/09/13 07:00:54;;;;;;;7.32;2.50;;;15.80;99.90;;;14.52;100.00;102858.53;5003634;28;20096;-75
2021/09/13 07:03:21;;;;;;;5.75;2.70;;;15.90;99.90;;;14.57;100.00;102861.06;4978064;28;20046;-75
2021/09/13 07:05:49;;;;;;;10.13;2.75;;;15.90;99.90;;;14.57;100.00;102866.38;4991992;28;20033;-76
2021/09/13 07:08:16;;;;;;;5.90;2.55;;;15.90;99.90;;;14.52;100.00;102882.38;4959258;28;20483;-75
2021/09/13 07:10:42;;;;;;;5.75;2.20;;;15.80;99.90;;;14.38;100.00;102844.78;4971061;28;20026;-76
2021/09/13 07:13:09;;;;;;;9.82;2.38;;;15.60;99.90;;;14.30;100.00;102828.25;4992014;28;20030;-75
2021/09/13 07:15:35;;;;;;;2.83;1.83;;;15.60;99.90;;;14.35;100.00;102836.94;4974195;28;20030;-75
2021/09/13 07:18:01;;;;;;;10.23;2.40;;;15.50;99.90;;;14.27;100.00;102826.53;4921474;28;20141;-78
2021/09/13 07:20:27;;;;;;;6.65;2.65;;;15.60;99.90;;;14.30;100.00;102839.72;4970880;28;20084;-76
2021/09/13 07:22:54;;;;;;;10.15;1.83;;;15.50;99.90;;;14.15;100.00;102806.59;4971953;28;20035;-76
2021/09/13 07:25:20;;;;;;;5.72;1.95;;;15.50;99.90;;;14.13;100.00;102789.00;4972342;28;21776;-76
2021/09/13 07:27:48;;;;;;;5.82;1.60;;;15.40;99.90;;;14.07;100.00;102776.78;4980582;28;20026;-76
2021/09/13 07:30:15;;;;;;;11.00;1.67;;;15.20;99.90;;;13.82;100.00;102712.19;4971054;28;20426;-75
2021/09/13 07:32:41;;;;;;;11.00;1.50;;;15.00;99.90;;;13.65;100.00;102681.78;4931707;28;20033;-75
2021/09/13 07:35:11;;;;;;;10.13;1.70;;;14.90;99.90;;;13.57;100.00;102675.84;4930378;28;20027;-76
2021/09/13 07:37:39;;;;;;;12.45;1.85;;;14.80;99.90;;;13.51;100.00;102682.16;4952909;28;20471;-76
2021/09/13 07:40:07;;;;;;;10.45;1.60;;;14.70;99.90;;;13.46;100.00;102677.91;4945503;28;20042;-76
2021/09/13 07:42:35;;;;;;;8.75;1.38;;;14.70;99.90;;;13.43;100.00;102680.63;4943751;28;20125;-76
2021/09/13 07:45:04;;;;;;;8.70;1.80;;;14.80;99.90;;;13.61;100.00;102729.56;4962040;28;20088;-75
2021/09/13 07:47:32;;;;;;;8.80;1.50;;;15.00;99.90;;;13.81;100.00;102742.25;4946086;28;20030;-75
2021/09/13 07:50:00;;;;;;;9.30;1.75;;;15.10;99.90;;;14.02;100.00;102725.72;4981326;28;20125;-75
2021/09/13 07:52:26;;;;;;;9.90;1.65;;;15.40;99.90;;;14.28;100.00;102702.91;4960960;28;20585;-75
2021/09/13 07:54:52;;;;;;;11.32;1.55;;;15.60;99.90;;;14.44;100.00;102711.22;4974758;28;20068;-75
2021/09/13 07:57:20;;;;;;;6.15;1.52;;;15.70;99.90;;;14.51;100.00;102711.00;4941016;28;20034;-74
2021/09/13 07:59:46;;;;;;;7.40;1.40;;;15.80;99.90;;;14.55;100.00;102717.09;4965585;28;20018;-74
2021/09/13 08:02:13;;;;;;;6.45;1.20;;;15.80;99.90;;;14.56;100.00;102708.22;4990337;28;20397;-75
2021/09/13 08:04:40;;;;;;;8.85;1.67;;;15.70;99.90;;;14.38;100.00;102683.13;4978086;28;20466;-75
2021/09/13 08:07:06;;;;;;;16.80;2.00;;;15.60;99.90;;;14.29;100.00;102686.06;4956703;28;20098;-77
2021/09/13 08:09:33;;;;;;;13.10;1.83;;;15.50;99.90;;;14.25;99.55;102674.69;4959885;28;20034;-75
2021/09/13 08:11:59;;;;;;;6.03;1.23;;;15.50;99.90;;;14.25;98.99;102782.47;4988248;28;20030;-74
2021/09/13 08:14:25;;;;;;;11.50;1.70;;;15.50;99.90;;;14.22;97.19;102697.78;4974907;28;20018;-74
2021/09/13 08:16:51;;;;;;;10.32;2.35;;;15.50;99.90;;;14.25;94.85;102682.63;4963213;28;20109;-75
2021/09/13 08:19:18;;;;;;;11.80;2.17;;;15.50;99.90;;;14.36;93.66;102690.25;4965032;28;20080;-75
2021/09/13 08:21:45;;;;;;;16.42;2.00;;;15.70;99.90;;;14.59;92.73;102699.31;4949805;28;20049;-74
2021/09/13 08:24:11;;;;;;;12.15;1.92;;;15.90;99.90;;;14.75;90.09;102700.53;4989574;28;20120;-75
2021/09/13 08:26:39;;;;;;;13.80;1.77;;;16.10;99.90;;;14.97;89.01;102736.06;4957331;28;20023;-75
2021/09/13 08:29:15;;;;;;;8.88;1.65;;;16.30;99.90;;;15.24;90.93;102865.22;4961753;28;20109;-75
2021/09/13 08:31:47;;;;;;;12.52;1.55;;;16.40;99.90;;;15.12;87.20;102951.41;4956979;28;20022;-75
2021/09/13 08:34:14;;;;;;;16.52;1.67;;;16.40;99.90;;;15.21;89.23;102823.72;4969973;28;20121;-75
2021/09/13 08:36:40;;;;;;;11.57;2.05;;;16.50;99.90;;;15.24;87.85;102765.22;4973897;28;20034;-75
2021/09/13 08:39:06;;;;;;;11.88;1.63;;;16.60;99.90;;;15.51;87.40;102791.75;4975945;28;20203;-75
2021/09/13 08:41:32;;;;;;;9.85;1.50;;;16.80;99.90;;;15.74;85.73;102783.91;4979555;28;20442;-76
2021/09/13 08:44:01;;;;;;;13.70;2.13;;;17.10;99.90;;;16.02;83.19;102768.72;4981782;28;20397;-75
2021/09/13 08:46:44;;;;;;;12.90;1.60;;;17.10;99.90;;;15.81;81.30;102734.06;4980443;28;20113;-75
2021/09/13 08:49:24;;;;;;;7.75;1.70;;;17.00;99.90;;;15.59;81.62;102773.75;4973622;28;20347;-75
2021/09/13 08:51:50;;;;;;;13.48;1.70;;;16.70;99.90;;;15.26;81.09;102957.13;4979210;28;20034;-75
2021/09/13 08:54:17;;;;;;;9.15;1.55;;;16.70;99.90;;;15.38;83.08;102868.28;4970127;28;20049;-74
2021/09/13 08:56:46;;;;;;;14.20;1.73;;;16.70;99.90;;;15.55;82.92;102830.53;4959646;28;20030;-75
2021/09/13 08:59:16;;;;;;;12.63;2.17;;;16.80;99.90;;;15.57;79.96;102796.84;4947532;28;20027;-75
2021/09/13 09:01:54;;;;;;;8.60;1.38;;;16.70;99.90;;;15.51;81.30;102782.00;4920383;28;20100;-74
2021/09/13 09:04:34;;;;;;;9.50;2.00;;;16.90;99.90;;;15.76;80.46;102781.16;4924172;28;20045;-75
2021/09/13 09:07:27;;;;;;;13.60;2.17;;;17.10;99.90;;;16.13;79.62;102809.03;4920193;28;20042;-75
2021/09/13 09:10:27;;;;;;;11.57;2.10;;;17.30;99.90;;;15.97;76.94;102747.63;4918624;28;20498;-75
2021/09/13 09:13:16;;;;;;;11.25;2.10;;;17.30;99.90;;;15.93;76.54;102725.63;4942298;28;20093;-75
2021/09/13 09:16:11;;;;;;;13.63;1.95;;;17.20;99.90;;;16.02;75.75;102734.19;4900624;28;20045;-75
2021/09/13 09:18:52;;;;;;;10.43;1.55;;;17.30;99.90;;;16.10;75.82;102903.03;4924822;28;20038;-75
2021/09/13 09:21:39;;;;;;;12.90;2.10;;;17.20;99.90;;;15.85;74.09;102814.50;4933414;28;20040;-75
2021/09/13 09:24:44;;;;;;;9.90;1.63;;;17.10;99.90;;;15.88;75.78;102701.03;4926211;28;20120;-75
2021/09/13 09:27:58;;;;;;;10.70;2.13;;;17.20;99.90;;;15.87;74.62;102639.97;4923852;28;20058;-75
2021/09/13 09:31:01;;;;;;;14.85;1.50;;;17.20;99.90;;;16.02;74.75;102649.16;4947777;28;20038;-75
2021/09/13 09:34:19;;;;;;;12.00;1.90;;;17.10;99.90;;;15.92;74.43;102635.38;4954906;28;20062;-74
2021/09/13 09:37:41;;;;;;;7.13;1.67;;;17.10;99.90;;;16.02;73.92;102611.97;4948559;28;20045;-75
2021/09/13 09:40:37;;;;;;;16.60;2.10;;;17.20;99.90;;;16.16;76.22;102604.31;4936671;28;20035;-75
2021/09/13 09:43:21;;;;;;;10.45;1.92;;;17.50;99.90;;;16.40;74.26;102599.78;4948745;28;21926;-76
2021/09/13 09:46:17;;;;;;;8.52;1.85;;;17.70;99.90;;;16.55;73.20;102601.78;4947397;28;20167;-74
2021/09/13 09:49:33;;;;;;;10.57;1.60;;;17.90;99.90;;;16.61;71.52;102505.81;4908788;28;21143;-75
2021/09/13 09:52:38;;;;;;;13.18;1.90;;;17.70;99.90;;;16.45;74.61;102551.72;4926162;28;20163;-75
2021/09/13 09:55:33;;;;;;;10.05;1.92;;;17.50;99.90;;;15.90;74.15;102438.00;4924043;28;20046;-75
2021/09/13 09:58:57;;;;;;;8.35;1.50;;;17.10;99.90;;;15.69;76.43;102451.19;4945675;28;20050;-75
2021/09/13 10:02:09;;;;;;;7.60;1.67;;;17.10;99.90;;;15.77;77.84;102427.88;4943039;28;20465;-75
2021/09/13 10:05:25;;;;;;;15.85;2.22;;;17.00;99.90;;;15.70;74.41;102377.69;4951540;28;20049;-74
2021/09/13 10:08:46;;;;;;;9.25;2.40;;;17.20;99.90;;;16.08;72.79;102413.28;4949400;28;20040;-75
2021/09/13 10:12:40;;;;;;;14.00;1.83;;;17.30;99.90;;;15.94;73.47;102389.13;4949232;28;20030;-75
2021/09/13 10:16:09;;;;;;;7.97;1.23;;;17.30;99.90;;;16.25;74.25;102379.81;4927443;28;20052;-75
2021/09/13 10:23:19;;;;;;;10.77;1.80;;;18.10;99.90;;;17.22;71.96;102477.38;4951327;28;20038;-75